Poley Invitational - SL
Results

U14; U16; U18; U21; Masters - 2 run SL

Jury
TD Dawn McLean CAN
Referee Gregor Byrne CAN
Chief of Race Dick Daigle CAN
Other Workers
Start Ref McNeil Mike CAN
Finish Ref Peter MaGee CAN
Race Admin Kim Peer CAN
Chief of Timing Brayden McLean CAN
Technical Data
Course Name
Start 243
Finish 136
Vertical Drop
Length
Homologation
1st Run 2nd run
Course Setter Aaron Dowding CAN Keith Dunphy CAN
Number of Gates 46/45 47/46
Homologation
Forerunner 1 Andrew Arsenault CAN Andrew Arsenault CAN
Forerunner 2 Olivia McLean CAN Olivia McLean CAN
Forerunner 3 Ella Daigle CAN
Forerunner 4 Sam Peterson CAN

Applied Penality: 259.14

Weather: SUNNY, CLEAR

Snow:HARD PACKED

Temperature Start: -6 Temperature Finish: -4

F:720

Rank Card Bib Name Club YOB Category 1st Run 2nd run Total Time Points
1 70014 4 TODD Emily WSRC 02 U16 40.77 43.04 1:23.81 0
2 73565 11 TZANETEAS Eliana MSRC 01 U18 42.50 44.42 1:26.92 26.72
3 77022 13 LAPLANTE Chloe FRLGN 04 U14 43.45 46.44 1:29.89 52.23
4 70582 8 BOSSHARD Gabrielle POLEY 01 U18 44.30 45.74 1:30.04 53.52
5 71482 12 BOSSE Jolaine FRLGN 01 U18 45.19 45.36 1:30.55 57.9
6 71539 5 HARMON Jessica WSRC 02 U16 44.09 46.68 1:30.77 59.79
7 73492 19 HENDERSON Isabelle WSRC 03 U16 44.32 46.63 1:30.95 61.34
8 67317 16 GILLIS Elsie MSRC 03 U16 45.18 46.46 1:31.64 67.27
9 80167 3 DOUGLAS Katherine PEI 03 U16 45.25 46.89 1:32.14 71.56
10 73339 17 SUTHERLAND Laine CRAB 04 U14 45.00 47.22 1:32.22 72.25
11 79391 6 CUDMORE Makena PEI 01 U18 45.26 47.40 1:32.66 76.03
12 70330 15 HICKEY Paige MARBL 02 U16 47.43 45.81 1:33.24 81.01
13 73325 24 HIEW Sophia POLEY 02 U16 46.05 47.26 1:33.31 81.61
14 85510 23 OAKLEY Lily WSRC 05 U14 46.28 47.40 1:33.68 84.79
15 72837 41 MACNEIL Madeline POLEY 04 U14 46.34 48.05 1:34.39 90.89
16 87822 36 BARRETT Meghan WSRC 03 U16 47.82 48.66 1:36.48 108.85
17 77026 29 AUCOIN Kamille FRLGN 05 U14 47.50 49.45 1:36.95 112.88
18 71499 2 MCLEAN Elizabeth POLEY 04 U14 42.17 54.82 1:36.99 113.23
19 77040 21 STOREY Abby CRAB 04 U14 47.70 49.54 1:37.24 115.38
20 73366 22 FAULKNER Jenna WSRC 03 U16 48.17 49.33 1:37.50 117.61
21 77042 26 WHITE Jessica CRAB 04 U14 47.88 49.80 1:37.68 119.16
22 67327 18 MYLES Lindsay WSRC 00 U18 49.15 48.86 1:38.01 121.99
23 79311 34 PACE Victoria WSRC 04 U14 47.54 50.55 1:38.09 122.68
24 77676 38 SKULSKY Sophia POLEY 05 U14 49.45 50.95 1:40.40 142.52
25 84381 32 ELLERBROK Kierstin BEST 00 U18 50.23 52.21 1:42.44 160.05
26 87820 52 ROLLINGS Sophia WSRC 05 U14 51.12 51.94 1:43.06 165.37
27 80160 14 CUDMORE Macy PEI 03 U16 45.48 57.69 1:43.17 166.32
28 81622 49 PARSONS Severn WSRC 05 U14 50.63 53.02 1:43.65 170.44
29 79644 31 MITTON Azlyn CRAB 04 U14 50.95 52.91 1:43.86 172.25
30 78637 28 PRICE Lauren CRAB 02 U16 50.51 53.65 1:44.16 174.82
31 84313 51 WILSON Maggie BEST 05 U14 51.74 52.80 1:44.54 178.09
32 77012 46 OULTON Carmen MSRC 04 U14 53.84 52.85 1:46.69 196.56
33 84466 33 KEEDWELL Hilary PEI 03 U16 51.65 55.72 1:47.37 202.4
34 67318 9 GILLIS Madeline MSRC 00 U18 1:03.73 44.98 1:48.71 213.91
35 87503 57 EMMERSON Destiny CRAB 05 U14 55.59 55.73 1:51.32 236.33
36 77669 25 PIKE Madeleine POLEY 03 U16 1:01.07 50.46 1:51.53 238.14
37 81618 54 PRETTY Caroline WSRC 04 U14 55.94 57.13 1:53.07 251.37
38 81609 48 MCNALLY Laura POLEY 05 U14 55.75 57.39 1:53.14 251.97
39 77568 44 PROSSER Michaela POLEY 04 U14 50.75 1:03.09 1:53.84 257.98
40 82357 47 MACDONALD Salena MSRC 04 U14 55.41 58.83 1:54.24 261.42
41 67269 27 BOUDREAU Sarah MSRC 00 U18 56.78 58.80 1:55.58 272.93
42 77041 43 TRITES Nicole CRAB 05 U14 51.74 1:04.08 1:55.82 274.99
43 85507 35 CHILDS Kate WSRC 05 U14 1:02.92 54.75 1:57.67 290.89
44 108060 10 DUNPHY Kyra POLEY 00 U18 1:15.53 44.45 1:59.98 310.73
45 73370 45 GODDARD Lucy MSRC 05 U14 1:04.78 57.59 2:02.37 331.26
46 79059 50 FRASER Paige MSRC 04 U14 1:02.77 1:08.20 2:10.97 405.14
47 80163 100 ROBICHAUD Christel POLEY 92 SR 1:28.91 1:31.64 3:00.55 831.08
999 74415 53 DAYA Cadence WSRC 04 U14 DNS 0
999 78634 20 MCCAIN Kaitlyn CRAB 02 U16 DNF 49.58 0
999 70586 30 DAIGLE Ella POLEY 01 U18 DNF 0
999 78636 42 PRICE Carolyn CRAB 04 U14 DNF 56.66 0
999 77657 55 BELYEA Hayley POLEY 05 U14 DNF 52.04 0
999 73333 37 RICE-WELLMAN Alexandra FRLGN 01 U18 1:05.50 DNS 0
999 79309 40 HATFIELD Delaney WSRC 04 U14 50.03 DNF 0
999 80161 1 PETERSON Sophie PEI 03 U16 46.40 DSQ - 0 0
21/01/2018 / Poley Mountain / NAT18.5219
© MECTiming All Rights Reserverd 2018